Time;durP1;ratioP1;P1;durP2;ratioP2;P2;SDS_P1;SDS_P2;PMS_P1;PMS_P2;Temp;Humidity;BMP_temperature;BMP_pressure;BME280_temperature;BME280_humidity;BME280_pressure;Samples;Min_cycle;Max_cycle;Signal;HPM_P1;HPM_P2
2023/01/21 00:01:49;;;;;;;;;;;;;;;;;;5105713;28;19919;-75
2023/01/21 00:04:15;;;;;;;;;;;;;;;;;;5110301;28;20641;-75
2023/01/21 00:06:41;;;;;;;;;;;;;;;;;;5107026;28;19915;-74
2023/01/21 00:09:06;;;;;;;;;;;;;;;;;;5108062;28;19912;-74
2023/01/21 00:11:32;;;;;;;;;;;;;;;;;;5106445;28;19923;-74
2023/01/21 00:13:58;;;;;;;;;;;;;;;;;;5111277;28;19918;-74
2023/01/21 00:16:24;;;;;;;;;;;;;;;;;;5108299;28;19996;-74
2023/01/21 00:18:50;;;;;;;;;;;;;;;;;;5103575;28;19908;-74
2023/01/21 00:21:16;;;;;;;;;;;;;;;;;;5105138;28;19920;-74
2023/01/21 00:23:42;;;;;;;;;;;;;;;;;;5106764;28;19912;-74
2023/01/21 00:26:08;;;;;;;;;;;;;;;;;;5100456;28;19918;-74
2023/01/21 00:28:34;;;;;;;;;;;;;;;;;;5109060;28;19924;-74
2023/01/21 00:30:59;;;;;;;;;;;;;;;;;;5105151;28;19912;-74
2023/01/21 00:33:25;;;;;;;;;;;;;;;;;;5110136;28;19912;-74
2023/01/21 00:35:51;;;;;;;;;;;;;;;;;;5095455;28;19915;-74
2023/01/21 00:38:17;;;;;;;;;;;;;;;;;;5106186;28;20002;-74
2023/01/21 00:40:43;;;;;;;;;;;;;;;;;;5103966;28;19911;-74
2023/01/21 00:43:09;;;;;;;;;;;;;;;;;;5106578;28;19916;-75
2023/01/21 00:45:35;;;;;;;;;;;;;;;;;;5110312;28;19947;-74
2023/01/21 00:48:01;;;;;;;;;;;;;;;;;;5104054;28;20415;-74
2023/01/21 00:50:26;;;;;;;;;;;;;;;;;;5098443;28;19919;-74
2023/01/21 00:52:53;;;;;;;;;;;;;;;;;;5106047;28;19916;-74
2023/01/21 00:55:19;;;;;;;;;;;;;;;;;;5098522;28;19994;-74
2023/01/21 00:57:45;;;;;;;;;;;;;;;;;;5110972;28;19940;-74
2023/01/21 01:00:11;;;;;;;;;;;;;;;;;;5109671;28;19911;-74
2023/01/21 01:02:37;;;;;;;;;;;;;;;;;;5102648;28;19912;-75
2023/01/21 01:05:04;;;;;;;;;;;;;;;;;;5108097;28;20559;-75
2023/01/21 01:07:30;;;;;;;;;;;;;;;;;;5109540;28;19991;-75
2023/01/21 01:09:56;;;;;;;;;;;;;;;;;;5104696;28;19959;-75
2023/01/21 01:12:22;;;;;;;;;;;;;;;;;;5109181;28;19915;-74
2023/01/21 01:14:48;;;;;;;;;;;;;;;;;;5108630;28;19912;-74
2023/01/21 01:17:14;;;;;;;;;;;;;;;;;;5099839;28;19927;-74
2023/01/21 01:19:40;;;;;;;;;;;;;;;;;;5104355;28;20362;-75
2023/01/21 01:22:05;;;;;;;;;;;;;;;;;;5098410;28;19916;-74
2023/01/21 01:24:31;;;;;;;;;;;;;;;;;;5107666;28;19907;-74
2023/01/21 01:26:57;;;;;;;;;;;;;;;;;;5104410;28;19916;-74
2023/01/21 01:29:23;;;;;;;;;;;;;;;;;;5101702;28;19998;-75
2023/01/21 01:31:49;;;;;;;;;;;;;;;;;;5109734;28;19923;-75
2023/01/21 01:34:15;;;;;;;;;;;;;;;;;;5101261;28;19947;-75
2023/01/21 01:36:41;;;;;;;;;;;;;;;;;;5102513;28;20369;-74
2023/01/21 01:39:07;;;;;;;;;;;;;;;;;;5102244;28;19912;-75
2023/01/21 01:41:34;;;;;;;;;;;;;;;;;;5109303;28;19919;-74
2023/01/21 01:44:00;;;;;;;;;;;;;;;;;;5101727;28;19908;-75
2023/01/21 01:46:25;;;;;;;;;;;;;;;;;;5109461;28;19911;-75
2023/01/21 01:48:51;;;;;;;;;;;;;;;;;;5107116;28;20380;-74
2023/01/21 01:51:17;;;;;;;;;;;;;;;;;;5095457;28;19931;-74
2023/01/21 01:53:43;;;;;;;;;;;;;;;;;;5106553;28;20399;-74
2023/01/21 01:56:09;;;;;;;;;;;;;;;;;;5103611;28;19954;-75
2023/01/21 01:58:35;;;;;;;;;;;;;;;;;;5101505;28;20039;-74
2023/01/21 02:01:01;;;;;;;;;;;;;;;;;;5104708;28;19912;-75
2023/01/21 02:03:45;;;;;;;;;;;;;;;;;;5107953;28;19916;-74
2023/01/21 02:06:11;;;;;;;;;;;;;;;;;;5108950;28;19911;-75
2023/01/21 02:08:37;;;;;;;;;;;;;;;;;;5108571;28;20261;-74
2023/01/21 02:11:03;;;;;;;;;;;;;;;;;;5091305;28;19912;-74
2023/01/21 02:13:29;;;;;;;;;;;;;;;;;;5106447;28;19940;-74
2023/01/21 02:15:55;;;;;;;;;;;;;;;;;;5097446;28;20407;-74
2023/01/21 02:18:20;;;;;;;;;;;;;;;;;;5103844;28;20007;-74
2023/01/21 02:20:46;;;;;;;;;;;;;;;;;;5101138;28;20768;-74
2023/01/21 02:23:12;;;;;;;;;;;;;;;;;;5102797;28;19920;-74
2023/01/21 02:25:39;;;;;;;;;;;;;;;;;;5101713;28;19911;-74
2023/01/21 02:28:05;;;;;;;;;;;;;;;;;;5102590;28;19947;-74
2023/01/21 02:30:31;;;;;;;;;;;;;;;;;;5104501;28;19950;-74
2023/01/21 02:32:57;;;;;;;;;;;;;;;;;;5102204;28;19912;-74
2023/01/21 02:35:22;;;;;;;;;;;;;;;;;;5102152;28;19923;-74
2023/01/21 02:37:48;;;;;;;;;;;;;;;;;;5103196;28;20458;-74
2023/01/21 02:40:14;;;;;;;;;;;;;;;;;;5107456;28;19951;-74
2023/01/21 02:42:40;;;;;;;;;;;;;;;;;;5098489;28;20294;-74
2023/01/21 02:45:06;;;;;;;;;;;;;;;;;;5096691;28;19918;-74
2023/01/21 02:47:32;;;;;;;;;;;;;;;;;;5100534;28;20029;-74
2023/01/21 02:49:58;;;;;;;;;;;;;;;;;;5103791;28;19927;-74
2023/01/21 02:52:24;;;;;;;;;;;;;;;;;;5097263;28;19919;-74
2023/01/21 02:54:49;;;;;;;;;;;;;;;;;;5101941;28;20006;-74
2023/01/21 02:57:15;;;;;;;;;;;;;;;;;;5100533;28;19916;-74
2023/01/21 02:59:41;;;;;;;;;;;;;;;;;;5111326;28;20674;-75
2023/01/21 03:02:07;;;;;;;;;;;;;;;;;;5111951;28;19922;-74
2023/01/21 03:04:33;;;;;;;;;;;;;;;;;;5112652;28;20326;-74
2023/01/21 03:06:59;;;;;;;;;;;;;;;;;;5108712;28;19916;-74
2023/01/21 03:09:25;;;;;;;;;;;;;;;;;;5111803;28;20351;-74
2023/01/21 03:11:51;;;;;;;;;;;;;;;;;;5110471;28;19915;-74
2023/01/21 03:17:01;;;;;;;;;;;;;;;;;;5105346;28;19974;-74
2023/01/21 03:19:27;;;;;;;;;;;;;;;;;;5105835;28;19950;-74
2023/01/21 03:21:53;;;;;;;;;;;;;;;;;;5107655;28;19916;-74
2023/01/21 03:24:18;;;;;;;;;;;;;;;;;;5103038;28;19920;-74
2023/01/21 03:26:44;;;;;;;;;;;;;;;;;;5107039;28;19962;-74
2023/01/21 03:29:10;;;;;;;;;;;;;;;;;;5111124;28;19912;-74
2023/01/21 03:31:36;;;;;;;;;;;;;;;;;;5109956;28;19915;-74
2023/01/21 03:34:02;;;;;;;;;;;;;;;;;;5105456;28;19912;-74
2023/01/21 03:36:28;;;;;;;;;;;;;;;;;;5106190;28;19926;-74
2023/01/21 03:38:54;;;;;;;;;;;;;;;;;;5106298;28;19919;-74
2023/01/21 03:41:20;;;;;;;;;;;;;;;;;;5108810;28;19915;-74
2023/01/21 03:43:46;;;;;;;;;;;;;;;;;;5111459;28;20354;-74
2023/01/21 03:46:12;;;;;;;;;;;;;;;;;;5110860;28;19922;-74
2023/01/21 03:48:37;;;;;;;;;;;;;;;;;;5105111;28;19953;-74
2023/01/21 03:51:03;;;;;;;;;;;;;;;;;;5109847;28;19959;-74
2023/01/21 03:53:29;;;;;;;;;;;;;;;;;;5109960;28;19915;-74
2023/01/21 03:55:55;;;;;;;;;;;;;;;;;;5112567;28;19922;-74
2023/01/21 03:58:21;;;;;;;;;;;;;;;;;;5108185;28;19923;-74
2023/01/21 04:00:48;;;;;;;;;;;;;;;;;;5111995;28;20002;-74
2023/01/21 04:03:13;;;;;;;;;;;;;;;;;;5110362;28;19955;-74
2023/01/21 04:05:39;;;;;;;;;;;;;;;;;;5111497;28;19966;-74
2023/01/21 04:08:05;;;;;;;;;;;;;;;;;;5108696;28;19911;-74
2023/01/21 04:10:31;;;;;;;;;;;;;;;;;;5107082;28;19911;-75
2023/01/21 04:12:57;;;;;;;;;;;;;;;;;;5103133;28;20350;-74
2023/01/21 04:15:23;;;;;;;;;;;;;;;;;;5112041;28;19918;-74
2023/01/21 04:17:49;;;;;;;;;;;;;;;;;;5100834;28;19912;-74
2023/01/21 04:20:15;;;;;;;;;;;;;;;;;;5113728;28;20582;-74
2023/01/21 04:22:41;;;;;;;;;;;;;;;;;;5109596;28;19918;-74
2023/01/21 04:25:06;;;;;;;;;;;;;;;;;;5088207;28;19920;-74
2023/01/21 04:27:32;;;;;;;;;;;;;;;;;;5110716;28;19912;-74
2023/01/21 04:29:58;;;;;;;;;;;;;;;;;;5100647;28;19991;-74
2023/01/21 04:32:24;;;;;;;;;;;;;;;;;;5109049;28;19928;-74
2023/01/21 04:34:50;;;;;;;;;;;;;;;;;;5101456;28;19957;-75
2023/01/21 04:37:16;;;;;;;;;;;;;;;;;;5097150;28;20278;-74
2023/01/21 04:39:42;;;;;;;;;;;;;;;;;;5102517;28;19911;-74
2023/01/21 04:42:08;;;;;;;;;;;;;;;;;;5108199;28;19926;-74
2023/01/21 04:44:33;;;;;;;;;;;;;;;;;;5106386;28;19998;-74
2023/01/21 04:46:59;;;;;;;;;;;;;;;;;;5103655;28;19912;-74
2023/01/21 04:49:25;;;;;;;;;;;;;;;;;;5107875;28;20512;-74
2023/01/21 04:51:51;;;;;;;;;;;;;;;;;;5105896;28;19959;-74
2023/01/21 04:54:17;;;;;;;;;;;;;;;;;;5098179;28;20414;-74
2023/01/21 04:56:43;;;;;;;;;;;;;;;;;;5108343;28;19922;-75
2023/01/21 04:59:09;;;;;;;;;;;;;;;;;;5106253;28;19929;-74
2023/01/21 05:01:35;;;;;;;;;;;;;;;;;;5103088;28;19923;-74
2023/01/21 05:04:00;;;;;;;;;;;;;;;;;;5105465;28;19998;-74
2023/01/21 05:06:26;;;;;;;;;;;;;;;;;;5098795;28;20006;-74
2023/01/21 05:08:52;;;;;;;;;;;;;;;;;;5101206;28;19916;-74
2023/01/21 05:11:18;;;;;;;;;;;;;;;;;;5103174;28;19915;-74
2023/01/21 05:13:44;;;;;;;;;;;;;;;;;;5089784;28;19962;-74
2023/01/21 05:16:10;;;;;;;;;;;;;;;;;;5108466;28;19980;-74
2023/01/21 05:18:36;;;;;;;;;;;;;;;;;;5102337;28;19923;-74
2023/01/21 05:21:02;;;;;;;;;;;;;;;;;;5107143;28;19912;-74
2023/01/21 05:23:28;;;;;;;;;;;;;;;;;;5103596;28;19920;-74
2023/01/21 05:25:53;;;;;;;;;;;;;;;;;;5103871;28;20238;-74
2023/01/21 05:28:19;;;;;;;;;;;;;;;;;;5102692;28;19916;-74
2023/01/21 05:30:45;;;;;;;;;;;;;;;;;;5101696;28;19962;-74
2023/01/21 05:33:11;;;;;;;;;;;;;;;;;;5100070;28;19913;-74
2023/01/21 05:35:37;;;;;;;;;;;;;;;;;;5102602;28;19912;-74
2023/01/21 05:38:03;;;;;;;;;;;;;;;;;;5101068;28;19912;-74
2023/01/21 05:40:29;;;;;;;;;;;;;;;;;;5101343;28;19964;-74
2023/01/21 05:42:55;;;;;;;;;;;;;;;;;;5109601;28;19915;-74
2023/01/21 05:45:21;;;;;;;;;;;;;;;;;;5097390;28;20376;-74
2023/01/21 05:47:46;;;;;;;;;;;;;;;;;;5102294;28;19944;-74
2023/01/21 05:50:12;;;;;;;;;;;;;;;;;;5104772;28;20376;-74
2023/01/21 05:52:38;;;;;;;;;;;;;;;;;;5104985;28;19916;-74
2023/01/21 05:55:04;;;;;;;;;;;;;;;;;;5099264;28;19969;-74
2023/01/21 05:57:30;;;;;;;;;;;;;;;;;;5109093;28;20449;-74
2023/01/21 05:59:56;;;;;;;;;;;;;;;;;;5105704;28;19918;-74
2023/01/21 06:02:22;;;;;;;;;;;;;;;;;;5101854;28;19916;-75
2023/01/21 06:04:48;;;;;;;;;;;;;;;;;;5104231;28;20683;-74
2023/01/21 06:07:13;;;;;;;;;;;;;;;;;;5102090;28;19923;-74
2023/01/21 06:09:39;;;;;;;;;;;;;;;;;;5097681;28;20395;-74
2023/01/21 06:12:05;;;;;;;;;;;;;;;;;;5104695;28;19916;-74
2023/01/21 06:14:31;;;;;;;;;;;;;;;;;;5105414;28;19950;-74
2023/01/21 06:16:57;;;;;;;;;;;;;;;;;;5108083;28;19924;-74
2023/01/21 06:19:23;;;;;;;;;;;;;;;;;;5096527;28;19912;-74
2023/01/21 06:21:49;;;;;;;;;;;;;;;;;;5102525;28;19966;-74
2023/01/21 06:24:15;;;;;;;;;;;;;;;;;;5100802;28;20368;-74
2023/01/21 06:26:41;;;;;;;;;;;;;;;;;;5100528;28;19915;-73
2023/01/21 06:29:06;;;;;;;;;;;;;;;;;;5101304;28;19908;-74
2023/01/21 06:31:33;;;;;;;;;;;;;;;;;;5103163;28;20009;-74
2023/01/21 06:33:58;;;;;;;;;;;;;;;;;;5104903;28;20002;-75
2023/01/21 06:36:24;;;;;;;;;;;;;;;;;;5106041;28;20433;-74
2023/01/21 06:38:50;;;;;;;;;;;;;;;;;;5108533;28;19949;-74
2023/01/21 06:41:16;;;;;;;;;;;;;;;;;;5102509;28;19955;-74
2023/01/21 06:43:42;;;;;;;;;;;;;;;;;;5106125;28;19915;-74
2023/01/21 06:46:09;;;;;;;;;;;;;;;;;;5102752;28;20385;-73
2023/01/21 06:48:35;;;;;;;;;;;;;;;;;;5100991;28;19915;-73
2023/01/21 06:51:01;;;;;;;;;;;;;;;;;;5104102;28;19922;-73
2023/01/21 06:53:27;;;;;;;;;;;;;;;;;;5100689;28;19956;-73
2023/01/21 06:55:52;;;;;;;;;;;;;;;;;;5105301;28;20370;-74
2023/01/21 06:58:18;;;;;;;;;;;;;;;;;;5103583;28;19911;-74
2023/01/21 07:00:44;;;;;;;;;;;;;;;;;;5100933;28;19923;-73
2023/01/21 07:03:10;;;;;;;;;;;;;;;;;;5100145;28;19994;-74
2023/01/21 07:05:36;;;;;;;;;;;;;;;;;;5100535;28;19911;-74
2023/01/21 07:08:02;;;;;;;;;;;;;;;;;;5100864;28;19916;-73
2023/01/21 07:10:28;;;;;;;;;;;;;;;;;;5099565;22;19924;-73
2023/01/21 07:12:54;;;;;;;;;;;;;;;;;;5074185;28;19951;-73
2023/01/21 07:15:20;;;;;;;;;;;;;;;;;;5076413;28;20327;-74
2023/01/21 07:17:45;;;;;;;;;;;;;;;;;;5077753;28;19981;-74
2023/01/21 07:20:11;;;;;;;;;;;;;;;;;;5073528;28;20263;-74
2023/01/21 07:22:37;;;;;;;;;;;;;;;;;;5070508;28;20003;-73
2023/01/21 07:25:03;;;;;;;;;;;;;;;;;;5063890;28;20431;-73
2023/01/21 07:27:29;;;;;;;;;;;;;;;;;;5077122;28;19912;-74
2023/01/21 07:29:55;;;;;;;;;;;;;;;;;;5073220;28;19916;-74
2023/01/21 07:32:21;;;;;;;;;;;;;;;;;;5074740;28;19912;-75
2023/01/21 07:34:46;;;;;;;;;;;;;;;;;;5072948;28;19918;-74
2023/01/21 07:37:12;;;;;;;;;;;;;;;;;;5085223;28;19919;-75
2023/01/21 07:39:38;;;;;;;;;;;;;;;;;;5086714;28;19922;-74
2023/01/21 07:42:04;;;;;;;;;;;;;;;;;;5081779;28;20357;-74
2023/01/21 07:44:30;;;;;;;;;;;;;;;;;;5086086;28;19982;-74
2023/01/21 07:46:56;;;;;;;;;;;;;;;;;;5081437;28;20683;-74
2023/01/21 07:49:22;;;;;;;;;;;;;;;;;;5068156;28;19916;-74
2023/01/21 07:51:48;;;;;;;;;;;;;;;;;;5082303;28;19965;-74
2023/01/21 07:54:14;;;;;;;;;;;;;;;;;;5078599;28;19916;-74
2023/01/21 07:56:40;;;;;;;;;;;;;;;;;;5075224;28;19916;-75
2023/01/21 07:59:06;;;;;;;;;;;;;;;;;;5078829;28;19920;-74
2023/01/21 08:01:31;;;;;;;;;;;;;;;;;;5076086;28;20104;-75
2023/01/21 08:03:57;;;;;;;;;;;;;;;;;;5084489;28;19908;-74
2023/01/21 08:06:23;;;;;;;;;;;;;;;;;;5083075;28;19966;-74
2023/01/21 08:08:49;;;;;;;;;;;;;;;;;;5077500;28;19916;-73
2023/01/21 08:11:15;;;;;;;;;;;;;;;;;;5076355;28;20140;-74
2023/01/21 08:13:41;;;;;;;;;;;;;;;;;;5082451;28;20465;-73
2023/01/21 08:16:10;;;;;;;;;;;;;;;;;;5077146;28;20018;-74
2023/01/21 08:18:36;;;;;;;;;;;;;;;;;;5084682;28;19939;-74
2023/01/21 08:21:02;;;;;;;;;;;;;;;;;;5078038;28;19915;-73
2023/01/21 08:23:27;;;;;;;;;;;;;;;;;;5074109;28;19958;-73
2023/01/21 08:25:53;;;;;;;;;;;;;;;;;;5077998;28;19939;-73
2023/01/21 08:28:19;;;;;;;;;;;;;;;;;;5079991;28;19911;-74
2023/01/21 08:30:45;;;;;;;;;;;;;;;;;;5079891;28;19924;-74
2023/01/21 08:33:11;;;;;;;;;;;;;;;;;;5076281;28;19908;-73
2023/01/21 08:35:37;;;;;;;;;;;;;;;;;;5079687;28;19919;-73
2023/01/21 08:38:03;;;;;;;;;;;;;;;;;;5084298;28;19912;-74
2023/01/21 08:40:29;;;;;;;;;;;;;;;;;;5080706;28;19966;-74
2023/01/21 08:42:55;;;;;;;;;;;;;;;;;;5081827;28;19918;-74
2023/01/21 08:45:21;;;;;;;;;;;;;;;;;;5081623;28;19921;-74
2023/01/21 08:47:46;;;;;;;;;;;;;;;;;;5075478;28;19913;-75
2023/01/21 08:50:13;;;;;;;;;;;;;;;;;;5077641;28;19920;-74
2023/01/21 08:52:39;;;;;;;;;;;;;;;;;;5076355;28;20473;-74
2023/01/21 08:55:04;;;;;;;;;;;;;;;;;;5079458;28;19916;-74
2023/01/21 08:57:30;;;;;;;;;;;;;;;;;;5082680;28;19916;-74
2023/01/21 08:59:56;;;;;;;;;;;;;;;;;;5074455;28;19919;-74
2023/01/21 09:02:22;;;;;;;;;;;;;;;;;;5080797;28;19918;-75
2023/01/21 09:04:49;;;;;;;;;;;;;;;;;;5083019;28;19963;-74
2023/01/21 09:07:15;;;;;;;;;;;;;;;;;;5078811;28;19943;-75
2023/01/21 09:09:41;;;;;;;;;;;;;;;;;;5075166;28;19975;-75
2023/01/21 09:12:07;;;;;;;;;;;;;;;;;;5074232;28;20694;-76
2023/01/21 09:14:32;;;;;;;;;;;;;;;;;;5079080;28;19957;-76
2023/01/21 09:16:58;;;;;;;;;;;;;;;;;;5078237;28;19920;-75
2023/01/21 09:19:24;;;;;;;;;;;;;;;;;;5060174;28;19965;-75
2023/01/21 09:21:54;;;;;;;;;;;;;;;;;;5081910;28;19955;-75
2023/01/21 09:24:20;;;;;;;;;;;;;;;;;;5086393;28;20385;-76
2023/01/21 09:26:46;;;;;;;;;;;;;;;;;;5068603;28;19916;-76
2023/01/21 09:29:12;;;;;;;;;;;;;;;;;;5081640;28;19918;-76
2023/01/21 09:31:37;;;;;;;;;;;;;;;;;;5076341;28;19947;-75
2023/01/21 09:34:05;;;;;;;;;;;;;;;;;;5081362;28;20329;-75
2023/01/21 09:36:31;;;;;;;;;;;;;;;;;;5076922;28;19916;-75
2023/01/21 09:38:57;;;;;;;;;;;;;;;;;;5075280;28;20362;-75
2023/01/21 09:41:23;;;;;;;;;;;;;;;;;;5082076;28;19912;-75
2023/01/21 09:43:49;;;;;;;;;;;;;;;;;;5077589;28;19919;-75
2023/01/21 09:46:14;;;;;;;;;;;;;;;;;;5077494;28;19966;-75
2023/01/21 09:48:40;;;;;;;;;;;;;;;;;;5084383;28;20388;-74
2023/01/21 09:51:06;;;;;;;;;;;;;;;;;;5082346;28;19920;-75
2023/01/21 09:53:32;;;;;;;;;;;;;;;;;;5073678;28;20295;-75
2023/01/21 09:55:58;;;;;;;;;;;;;;;;;;5070573;28;20023;-75
2023/01/21 09:58:24;;;;;;;;;;;;;;;;;;5077157;28;20534;-75
2023/01/21 10:00:50;;;;;;;;;;;;;;;;;;5074524;28;19958;-75
2023/01/21 10:03:16;;;;;;;;;;;;;;;;;;5064511;28;20345;-75
2023/01/21 10:05:41;;;;;;;;;;;;;;;;;;5076218;28;20409;-75
2023/01/21 10:08:07;;;;;;;;;;;;;;;;;;5078355;28;20334;-75
2023/01/21 10:10:33;;;;;;;;;;;;;;;;;;5082156;28;20002;-75
2023/01/21 10:12:59;;;;;;;;;;;;;;;;;;5075146;28;20611;-75
2023/01/21 10:15:25;;;;;;;;;;;;;;;;;;5068799;28;20343;-75
2023/01/21 10:17:51;;;;;;;;;;;;;;;;;;5076633;28;19919;-74
2023/01/21 10:20:17;;;;;;;;;;;;;;;;;;5078346;28;20318;-75
2023/01/21 10:22:43;;;;;;;;;;;;;;;;;;5078209;28;20053;-75
2023/01/21 10:25:09;;;;;;;;;;;;;;;;;;5079273;28;19923;-75
2023/01/21 10:27:34;;;;;;;;;;;;;;;;;;5071097;28;19931;-75
2023/01/21 10:30:00;;;;;;;;;;;;;;;;;;5076752;28;19915;-75
2023/01/21 10:32:26;;;;;;;;;;;;;;;;;;5078891;28;19915;-75
2023/01/21 10:34:52;;;;;;;;;;;;;;;;;;5077488;28;20011;-75
2023/01/21 10:37:18;;;;;;;;;;;;;;;;;;5078593;28;19923;-75
2023/01/21 10:39:44;;;;;;;;;;;;;;;;;;5078828;28;20259;-75
2023/01/21 10:42:10;;;;;;;;;;;;;;;;;;5066881;28;19919;-75
2023/01/21 10:44:36;;;;;;;;;;;;;;;;;;5080069;28;19964;-75
2023/01/21 10:47:01;;;;;;;;;;;;;;;;;;5084983;28;20327;-75
2023/01/21 10:49:27;;;;;;;;;;;;;;;;;;5081429;28;19916;-75
2023/01/21 10:51:53;;;;;;;;;;;;;;;;;;5068605;28;20439;-75
2023/01/21 10:54:19;;;;;;;;;;;;;;;;;;5078005;28;19935;-75
2023/01/21 10:56:45;;;;;;;;;;;;;;;;;;5081450;28;20325;-75
2023/01/21 10:59:11;;;;;;;;;;;;;;;;;;5085682;28;19919;-75
2023/01/21 11:01:37;;;;;;;;;;;;;;;;;;5081541;28;19911;-75
2023/01/21 11:04:03;;;;;;;;;;;;;;;;;;5082302;28;19938;-75
2023/01/21 11:06:29;;;;;;;;;;;;;;;;;;5086186;28;19908;-75
2023/01/21 11:08:54;;;;;;;;;;;;;;;;;;5075877;28;19912;-75
2023/01/21 11:11:20;;;;;;;;;;;;;;;;;;5074920;28;19920;-75
2023/01/21 11:13:46;;;;;;;;;;;;;;;;;;5070952;28;20342;-75
2023/01/21 11:16:12;;;;;;;;;;;;;;;;;;5086238;28;20627;-75
2023/01/21 11:18:38;;;;;;;;;;;;;;;;;;5078149;28;20060;-75
2023/01/21 11:21:04;;;;;;;;;;;;;;;;;;5076926;28;20401;-74
2023/01/21 11:23:30;;;;;;;;;;;;;;;;;;5084916;28;19912;-74
2023/01/21 11:25:56;;;;;;;;;;;;;;;;;;5078346;28;19926;-74
2023/01/21 11:28:22;;;;;;;;;;;;;;;;;;5081541;28;19912;-74
2023/01/21 11:30:48;;;;;;;;;;;;;;;;;;5086732;28;20341;-74
2023/01/21 11:33:14;;;;;;;;;;;;;;;;;;5088050;28;19919;-74
2023/01/21 11:35:40;;;;;;;;;;;;;;;;;;5080421;28;20030;-75
2023/01/21 11:38:06;;;;;;;;;;;;;;;;;;5081712;28;19916;-75
2023/01/21 11:40:32;;;;;;;;;;;;;;;;;;5082847;28;20430;-75
2023/01/21 11:42:58;;;;;;;;;;;;;;;;;;5081824;28;20015;-74
2023/01/21 11:45:24;;;;;;;;;;;;;;;;;;5080799;28;19970;-75
2023/01/21 11:47:50;;;;;;;;;;;;;;;;;;5078886;28;19929;-74
2023/01/21 11:50:15;;;;;;;;;;;;;;;;;;5081185;28;20395;-75
2023/01/21 11:52:41;;;;;;;;;;;;;;;;;;5085083;28;19908;-74
2023/01/21 11:55:07;;;;;;;;;;;;;;;;;;5080046;28;19923;-74
2023/01/21 11:57:33;;;;;;;;;;;;;;;;;;5076085;28;19923;-74
2023/01/21 11:59:59;;;;;;;;;;;;;;;;;;5067788;28;19927;-75
2023/01/21 12:02:25;;;;;;;;;;;;;;;;;;5080367;28;19912;-75
2023/01/21 12:04:51;;;;;;;;;;;;;;;;;;5084665;28;20573;-74
2023/01/21 12:07:17;;;;;;;;;;;;;;;;;;5087157;28;19991;-74
2023/01/21 12:09:43;;;;;;;;;;;;;;;;;;5079511;28;20568;-75
2023/01/21 12:12:08;;;;;;;;;;;;;;;;;;5076607;28;19912;-75
2023/01/21 12:14:34;;;;;;;;;;;;;;;;;;5073280;28;19924;-75
2023/01/21 12:17:00;;;;;;;;;;;;;;;;;;5075311;28;19996;-74
2023/01/21 12:19:26;;;;;;;;;;;;;;;;;;5084588;28;19927;-75
2023/01/21 12:21:52;;;;;;;;;;;;;;;;;;5071794;28;19912;-75
2023/01/21 12:24:18;;;;;;;;;;;;;;;;;;5076260;28;20933;-74
2023/01/21 12:26:44;;;;;;;;;;;;;;;;;;5080422;28;19911;-74
2023/01/21 12:29:10;;;;;;;;;;;;;;;;;;5084445;28;19916;-75
2023/01/21 12:31:36;;;;;;;;;;;;;;;;;;5081336;28;20156;-75
2023/01/21 12:34:02;;;;;;;;;;;;;;;;;;5081269;28;19909;-75
2023/01/21 12:36:28;;;;;;;;;;;;;;;;;;5081672;28;20085;-75
2023/01/21 12:38:53;;;;;;;;;;;;;;;;;;5080195;28;19911;-75
2023/01/21 12:41:19;;;;;;;;;;;;;;;;;;5078361;28;19919;-75
2023/01/21 12:43:45;;;;;;;;;;;;;;;;;;5077955;28;19916;-75
2023/01/21 12:46:12;;;;;;;;;;;;;;;;;;5078730;28;20295;-75
2023/01/21 12:48:38;;;;;;;;;;;;;;;;;;5078577;28;19919;-75
2023/01/21 12:51:04;;;;;;;;;;;;;;;;;;5080654;28;19916;-75
2023/01/21 12:53:30;;;;;;;;;;;;;;;;;;5081692;28;20696;-74
2023/01/21 12:55:56;;;;;;;;;;;;;;;;;;5061626;28;19924;-75
2023/01/21 12:58:22;;;;;;;;;;;;;;;;;;5078298;28;20007;-75
2023/01/21 13:00:48;;;;;;;;;;;;;;;;;;5080963;28;19968;-75
2023/01/21 13:03:13;;;;;;;;;;;;;;;;;;5080509;28;19911;-75
2023/01/21 13:05:40;;;;;;;;;;;;;;;;;;5071707;28;19915;-75
2023/01/21 13:08:06;;;;;;;;;;;;;;;;;;5077990;28;20749;-75
2023/01/21 13:10:32;;;;;;;;;;;;;;;;;;5069016;28;19927;-75
2023/01/21 13:12:58;;;;;;;;;;;;;;;;;;5078577;28;20011;-75
2023/01/21 13:15:24;;;;;;;;;;;;;;;;;;5081651;28;20282;-75
2023/01/21 13:17:50;;;;;;;;;;;;;;;;;;5073903;28;19916;-75
2023/01/21 13:20:16;;;;;;;;;;;;;;;;;;5070897;28;20286;-75
2023/01/21 13:22:42;;;;;;;;;;;;;;;;;;5080021;28;19912;-76
2023/01/21 13:25:07;;;;;;;;;;;;;;;;;;5081107;28;20671;-75
2023/01/21 13:27:33;;;;;;;;;;;;;;;;;;5079060;28;19913;-75
2023/01/21 13:29:59;;;;;;;;;;;;;;;;;;5078533;28;20335;-75
2023/01/21 13:32:25;;;;;;;;;;;;;;;;;;5076847;28;19983;-74
2023/01/21 13:34:51;;;;;;;;;;;;;;;;;;5068240;28;20287;-75
2023/01/21 13:37:17;;;;;;;;;;;;;;;;;;5075195;28;20031;-75
2023/01/21 13:39:43;;;;;;;;;;;;;;;;;;5075228;28;19923;-75
2023/01/21 13:42:09;;;;;;;;;;;;;;;;;;5073442;28;20334;-75
2023/01/21 13:44:36;;;;;;;;;;;;;;;;;;5078509;28;20036;-75
2023/01/21 13:47:02;;;;;;;;;;;;;;;;;;5077791;28;20317;-75
2023/01/21 13:49:28;;;;;;;;;;;;;;;;;;5075400;28;19921;-75
2023/01/21 13:51:54;;;;;;;;;;;;;;;;;;5074347;28;19916;-75
2023/01/21 13:54:19;;;;;;;;;;;;;;;;;;5081393;28;19939;-75
2023/01/21 13:56:45;;;;;;;;;;;;;;;;;;5080335;28;19916;-75
2023/01/21 13:59:11;;;;;;;;;;;;;;;;;;5077959;28;20027;-75
2023/01/21 14:01:38;;;;;;;;;;;;;;;;;;5079295;28;20871;-75
2023/01/21 14:04:04;;;;;;;;;;;;;;;;;;5076778;28;19919;-75
2023/01/21 14:06:30;;;;;;;;;;;;;;;;;;5071128;28;19916;-75
2023/01/21 14:08:56;;;;;;;;;;;;;;;;;;5079754;28;20123;-75
2023/01/21 14:11:21;;;;;;;;;;;;;;;;;;5080572;28;20395;-75
2023/01/21 14:13:48;;;;;;;;;;;;;;;;;;5075269;28;20030;-75
2023/01/21 14:16:13;;;;;;;;;;;;;;;;;;5081396;28;19959;-75
2023/01/21 14:18:39;;;;;;;;;;;;;;;;;;5078481;28;20373;-75
2023/01/21 14:21:05;;;;;;;;;;;;;;;;;;5083409;28;19952;-75
2023/01/21 14:23:31;;;;;;;;;;;;;;;;;;5082412;28;19912;-75
2023/01/21 14:25:57;;;;;;;;;;;;;;;;;;5077025;28;19916;-75
2023/01/21 14:28:23;;;;;;;;;;;;;;;;;;5077888;28;19974;-75
2023/01/21 14:30:49;;;;;;;;;;;;;;;;;;5075626;28;19923;-76
2023/01/21 14:33:15;;;;;;;;;;;;;;;;;;5085594;28;19912;-75
2023/01/21 14:35:41;;;;;;;;;;;;;;;;;;5085166;28;20454;-75
2023/01/21 14:38:06;;;;;;;;;;;;;;;;;;5083398;28;19916;-75
2023/01/21 14:40:32;;;;;;;;;;;;;;;;;;5081603;28;19916;-75
2023/01/21 14:42:58;;;;;;;;;;;;;;;;;;5083920;28;19950;-75
2023/01/21 14:45:24;;;;;;;;;;;;;;;;;;5089577;28;20316;-75
2023/01/21 14:47:50;;;;;;;;;;;;;;;;;;5105056;28;19916;-75
2023/01/21 14:50:16;;;;;;;;;;;;;;;;;;5098932;28;20246;-75
2023/01/21 14:52:42;;;;;;;;;;;;;;;;;;5100049;28;19908;-75
2023/01/21 14:55:08;;;;;;;;;;;;;;;;;;5102787;28;19916;-75
2023/01/21 14:57:34;;;;;;;;;;;;;;;;;;5107073;28;19911;-75
2023/01/21 15:00:00;;;;;;;;;;;;;;;;;;5101666;28;19945;-75
2023/01/21 15:02:25;;;;;;;;;;;;;;;;;;5102121;28;20030;-75
2023/01/21 15:04:52;;;;;;;;;;;;;;;;;;5104133;28;19953;-75
2023/01/21 15:07:19;;;;;;;;;;;;;;;;;;5102715;28;20364;-75
2023/01/21 15:09:44;;;;;;;;;;;;;;;;;;5097275;28;20368;-75
2023/01/21 15:12:10;;;;;;;;;;;;;;;;;;5100730;28;19956;-75
2023/01/21 15:14:36;;;;;;;;;;;;;;;;;;5104519;28;19919;-75
2023/01/21 15:17:02;;;;;;;;;;;;;;;;;;5098478;28;20397;-75
2023/01/21 15:19:28;;;;;;;;;;;;;;;;;;5096257;28;19916;-75
2023/01/21 15:21:54;;;;;;;;;;;;;;;;;;5102231;28;19967;-75
2023/01/21 15:24:20;;;;;;;;;;;;;;;;;;5105304;28;20500;-75
2023/01/21 15:26:46;;;;;;;;;;;;;;;;;;5101091;28;20601;-75
2023/01/21 15:29:14;;;;;;;;;;;;;;;;;;5097852;28;19911;-74
2023/01/21 15:31:40;;;;;;;;;;;;;;;;;;5098604;28;19919;-75
2023/01/21 15:34:06;;;;;;;;;;;;;;;;;;5096631;28;19953;-74
2023/01/21 15:36:33;;;;;;;;;;;;;;;;;;5104607;28;19919;-75
2023/01/21 15:38:59;;;;;;;;;;;;;;;;;;5091851;28;19919;-75
2023/01/21 15:41:25;;;;;;;;;;;;;;;;;;5105323;28;19912;-75
2023/01/21 15:43:53;;;;;;;;;;;;;;;;;;5101988;28;20309;-75
2023/01/21 15:46:19;;;;;;;;;;;;;;;;;;5096309;28;20021;-75
2023/01/21 15:48:45;;;;;;;;;;;;;;;;;;5099808;28;19912;-75
2023/01/21 15:51:11;;;;;;;;;;;;;;;;;;5100117;28;19916;-75
2023/01/21 15:53:37;;;;;;;;;;;;;;;;;;5102590;28;20308;-75
2023/01/21 15:56:03;;;;;;;;;;;;;;;;;;5098954;28;19932;-75
2023/01/21 15:58:31;;;;;;;;;;;;;;;;;;5092484;28;20342;-75
2023/01/21 16:00:56;;;;;;;;;;;;;;;;;;5097838;28;19978;-75
2023/01/21 16:03:22;;;;;;;;;;;;;;;;;;5099003;28;20329;-74
2023/01/21 16:05:48;;;;;;;;;;;;;;;;;;5097071;28;19988;-75
2023/01/21 16:08:14;;;;;;;;;;;;;;;;;;5096154;28;20587;-74
2023/01/21 16:10:40;;;;;;;;;;;;;;;;;;5093031;28;19928;-75
2023/01/21 16:13:06;;;;;;;;;;;;;;;;;;5096255;28;20030;-75
2023/01/21 16:15:32;;;;;;;;;;;;;;;;;;5098259;28;19934;-75
2023/01/21 16:17:58;;;;;;;;;;;;;;;;;;5103401;28;19934;-75
2023/01/21 16:20:23;;;;;;;;;;;;;;;;;;5096963;28;19955;-76
2023/01/21 16:22:50;;;;;;;;;;;;;;;;;;5100915;28;20022;-75
2023/01/21 16:25:16;;;;;;;;;;;;;;;;;;5100792;28;19916;-76
2023/01/21 16:27:42;;;;;;;;;;;;;;;;;;5097212;28;19923;-76
2023/01/21 16:30:08;;;;;;;;;;;;;;;;;;5096345;28;19955;-76
2023/01/21 16:32:36;;;;;;;;;;;;;;;;;;5105598;28;19919;-77
2023/01/21 16:35:02;;;;;;;;;;;;;;;;;;5097032;28;19915;-76
2023/01/21 16:37:28;;;;;;;;;;;;;;;;;;5096008;28;19915;-75
2023/01/21 16:39:53;;;;;;;;;;;;;;;;;;5083224;28;19916;-76